Data for 02/17/2016

Time Sea-Level Adjusted Pressure Absolute Pressure Temperature Relative Humidity Dew Point   
(mb) (inHg) (mb) (inHg) (C) (F) (%) (C) (F)
00:05 1015 29.97 844 24.92 5.2 41.4 58 -2.4 27.7
00:10 1015 29.97 844 24.92 4.9 40.8 58 -2.6 27.4
00:15 1015 29.97 844 24.92 4.9 40.8 58 -2.6 27.3
00:20 1015 29.97 844 24.92 5 41 59 -2.4 27.7
00:25 1015 29.97 844 24.92 4.9 40.8 58 -2.7 27.2
00:30 1015 29.97 844 24.92 4.7 40.4 60 -2.5 27.6
00:35 1015 29.97 844 24.92 4.4 40 60 -2.7 27.2
00:40 1015 29.97 844 24.92 4.3 39.8 61 -2.6 27.3
00:45 1015 29.97 844 24.92 4.2 39.6 61 -2.7 27.1
00:50 1015 29.97 844 24.92 4 39.2 61 -2.8 26.9
00:55 1015 29.97 844 24.92 4 39.2 62 -2.7 27.2
01:00 1015 29.97 844 24.92 3.7 38.7 65 -2.2 28
01:05 1015 29.97 844 24.92 3.2 37.8 67 -2.4 27.7
01:10 1015 29.97 844 24.92 3.2 37.8 66 -2.5 27.5
01:15 1015 29.97 844 24.92 3.3 37.9 65 -2.8 27
01:20 1015 29.97 844 24.92 3.5 38.2 63 -3 26.7
01:25 1015 29.97 844 24.92 3.9 39 60 -3 26.5
01:30 1015 29.97 844 24.92 4.1 39.5 60 -2.9 26.8
01:35 1015 29.97 844 24.92 4.1 39.4 59 -3.1 26.4
01:40 1015 29.97 844 24.92 4.3 39.8 59 -2.9 26.7
01:45 1015 29.97 844 24.92 4.2 39.6 59 -3.1 26.4
01:50 1015 29.97 844 24.92 4.2 39.6 58 -3.2 26.2
01:55 1015 29.97 844 24.92 4 39.2 61 -2.9 26.8
02:00 1015 29.97 844 24.92 3.7 38.7 61 -3.2 26.2
02:05 1014 29.94 844 24.92 3.6 38.5 63 -2.7 27.1
02:10 1014 29.94 844 24.92 3.3 37.9 65 -2.7 27.1
02:15 1014 29.94 844 24.92 3.4 38.2 62 -3.1 26.4
02:20 1014 29.94 844 24.92 3.6 38.5 62 -2.9 26.8
02:25 1014 29.94 844 24.92 3.6 38.5 63 -2.8 26.9
02:30 1014 29.94 844 24.92 3.6 38.5 63 -2.7 27.2
02:35 1014 29.94 844 24.92 3.8 38.9 61 -3 26.6
02:40 1014 29.94 844 24.92 4 39.2 61 -2.8 27
02:45 1014 29.94 844 24.92 4 39.1 60 -3.1 26.4
02:50 1014 29.94 844 24.92 4.2 39.5 60 -3 26.7
02:55 1015 29.97 844 24.92 4 39.2 61 -2.9 26.8
03:00 1015 29.97 844 24.92 4 39.2 60 -3.1 26.4
03:05 1015 29.97 844 24.92 4.1 39.4 58 -3.5 25.7
03:10 1015 29.97 844 24.92 4.5 40 56 -3.4 25.8
03:15 1015 29.97 844 24.92 4.3 39.7 57 -3.5 25.7
03:20 1015 29.97 844 24.92 4.2 39.5 58 -3.2 26.2
03:25 1015 29.97 844 24.92 3.9 39 60 -3.3 26.1
03:30 1015 29.97 844 24.92 3.8 38.8 60 -3.3 26
03:35 1015 29.97 844 24.92 3.7 38.7 60 -3.3 26
03:40 1015 29.97 844 24.92 3.7 38.6 60 -3.3 26
03:45 1015 29.97 844 24.92 3.4 38.2 61 -3.3 26
03:50 1015 29.97 844 24.92 3.4 38.1 61 -3.4 25.9
03:55 1015 29.97 844 24.92 3.2 37.7 64 -3 26.7
04:00 1015 29.97 844 24.92 2.6 36.7 66 -3.1 26.3
04:05 1015 29.97 844 24.92 2.7 36.8 64 -3.4 25.9
04:10 1014 29.94 844 24.92 3 37.4 62 -3.5 25.6
04:15 1014 29.94 844 24.92 3.4 38.1 62 -3.3 26.1
04:20 1014 29.94 844 24.92 3.3 37.9 64 -2.9 26.7
04:25 1014 29.94 844 24.92 3.1 37.6 64 -3 26.7
04:30 1014 29.94 843 24.89 3 37.5 64 -3.1 26.4
04:35 1014 29.94 843 24.89 3.1 37.6 65 -2.9 26.8
04:40 1014 29.94 843 24.89 3 37.3 63 -3.3 26
04:45 1014 29.94 843 24.89 3.2 37.7 62 -3.3 26
04:50 1014 29.94 843 24.89 3.1 37.7 63 -3.3 26.1
04:55 1014 29.94 843 24.89 3 37.4 62 -3.5 25.7
05:00 1014 29.94 843 24.89 3.2 37.7 61 -3.6 25.5
05:05 1014 29.94 843 24.89 3.3 37.9 61 -3.5 25.6
05:10 1014 29.94 843 24.89 3.1 37.7 62 -3.4 25.8
05:15 1014 29.94 843 24.89 2.9 37.2 62 -3.6 25.5
05:20 1014 29.94 843 24.89 2.8 37 63 -3.7 25.4
05:25 1014 29.94 843 24.89 2.9 37.2 60 -4.1 24.6
05:30 1014 29.94 843 24.89 3.2 37.7 59 -4 24.9
05:35 1014 29.94 843 24.89 3.2 37.8 58 -4.2 24.5
05:40 1014 29.94 843 24.89 3.3 37.9 58 -4.1 24.6
05:45 1014 29.94 843 24.89 3.3 37.9 57 -4.4 24.1
05:50 1014 29.94 843 24.89 3.3 38 59 -4 24.8
05:55 1014 29.94 843 24.89 2.8 37 60 -4.3 24.2
06:00 1014 29.94 843 24.89 2.5 36.6 61 -4.3 24.2
06:05 1014 29.94 843 24.89 2.6 36.7 60 -4.5 23.9
06:10 1014 29.94 843 24.89 2.9 37.2 58 -4.6 23.8
06:15 1014 29.94 843 24.89 3.3 38 56 -4.7 23.6
06:20 1014 29.94 843 24.89 3.4 38.1 57 -4.3 24.3
06:25 1014 29.94 843 24.89 3.2 37.8 58 -4.3 24.3
06:30 1014 29.94 843 24.89 3 37.4 59 -4.3 24.3
06:35 1014 29.94 843 24.89 2.9 37.3 59 -4.4 24.2
06:40 1014 29.94 843 24.89 3.3 37.9 57 -4.4 24.2
06:45 1014 29.94 843 24.89 3.2 37.8 58 -4.3 24.2
06:50 1013 29.91 843 24.89 2.9 37.1 59 -4.4 24.1
06:55 1013 29.91 843 24.89 2.5 36.5 60 -4.4 24.1
07:00 1013 29.91 842 24.86 2.2 35.9 62 -4.4 24.1
07:05 1013 29.91 842 24.86 2.5 36.5 60 -4.4 24
07:10 1013 29.91 842 24.86 2.5 36.5 61 -4.2 24.4
07:15 1013 29.91 842 24.86 2.3 36.1 62 -4.3 24.3
07:20 1013 29.91 842 24.86 2.3 36.2 62 -4.3 24.3
07:25 1013 29.91 842 24.86 2.5 36.5 61 -4.2 24.5
07:30 1013 29.91 842 24.86 2.6 36.6 61 -4.1 24.6
07:35 1013 29.91 842 24.86 2.7 36.9 61 -4.1 24.6
07:40 1013 29.91 842 24.86 2.7 36.8 62 -3.9 25
07:45 1013 29.91 842 24.86 2.5 36.4 62 -4.1 24.6
07:50 1013 29.91 842 24.86 2.5 36.6 62 -4 24.8
07:55 1013 29.91 842 24.86 2.9 37.2 59 -4.3 24.3
08:00 1013 29.91 842 24.86 3.5 38.2 58 -4.1 24.6
08:05 1013 29.91 842 24.86 3.6 38.5 57 -4 24.7
08:10 1013 29.91 842 24.86 3.6 38.5 58 -3.9 24.9
08:15 1012 29.88 842 24.86 3.5 38.3 58 -3.9 24.9
08:20 1012 29.88 842 24.86 3.6 38.5 57 -4.2 24.5
08:25 1012 29.88 842 24.86 3.9 39.1 55 -4.2 24.5
08:30 1012 29.88 842 24.86 4.3 39.7 53 -4.4 24
08:35 1012 29.88 842 24.86 4.4 40 53 -4.2 24.4
08:40 1012 29.88 842 24.86 4.4 40 53 -4.3 24.3
08:45 1012 29.88 842 24.86 4.5 40.1 52 -4.6 23.8
08:50 1012 29.88 842 24.86 4.8 40.6 51 -4.4 24
08:55 1012 29.88 842 24.86 5 40.9 50 -4.6 23.7
09:00 1012 29.88 841 24.83 4.9 40.9 51 -4.3 24.2
09:05 1012 29.88 841 24.83 4.7 40.5 52 -4.4 24.1
09:10 1012 29.88 841 24.83 4.7 40.4 52 -4.2 24.4
09:15 1012 29.88 841 24.83 4.6 40.2 53 -4.2 24.4
09:20 1012 29.88 841 24.83 4.5 40.1 53 -4.4 24.1
09:25 1012 29.88 841 24.83 4.6 40.3 52 -4.4 24.2
09:30 1012 29.88 841 24.83 4.8 40.6 52 -4.2 24.5
09:35 1012 29.88 841 24.83 4.7 40.4 53 -4 24.7
09:40 1012 29.88 841 24.83 4.5 40.2 52 -4.4 24.1
09:45 1012 29.88 841 24.83 4.8 40.6 52 -4.3 24.3
09:50 1012 29.88 841 24.83 4.9 40.8 52 -4.3 24.3
09:55 1011 29.85 841 24.83 4.9 40.9 52 -4.1 24.6
10:00 1012 29.88 841 24.83 4.9 40.8 53 -3.9 24.9
10:05 1011 29.85 841 24.83 4.8 40.6 53 -4 24.9
10:10 1011 29.85 841 24.83 4.8 40.6 53 -4.1 24.6
10:15 1011 29.85 841 24.83 5 40.9 52 -4.1 24.7
10:20 1011 29.85 841 24.83 5.2 41.3 51 -4.2 24.5
10:25 1011 29.85 841 24.83 5.4 41.7 50 -4.2 24.4
10:30 1011 29.85 841 24.83 5.7 42.3 50 -3.8 25.1
10:35 1011 29.85 841 24.83 5.6 42.1 53 -3.2 26.3
10:40 1011 29.85 841 24.83 5.4 41.6 54 -3.2 26.2
10:45 1011 29.85 841 24.83 5.4 41.8 54 -3.2 26.2
10:50 1011 29.85 840 24.81 5.6 42 53 -3.2 26.3
10:55 1011 29.85 840 24.81 5.6 42 54 -3 26.6
11:00 1011 29.85 840 24.81 5.1 41.2 56 -3.1 26.5
11:05 1011 29.85 840 24.81 4.8 40.6 56 -3.3 26.1
11:10 1011 29.85 840 24.81 4.8 40.6 56 -3.4 25.9
11:15 1011 29.85 840 24.81 4.9 40.9 54 -3.7 25.4
11:20 1011 29.85 840 24.81 5.2 41.3 53 -3.5 25.7
11:25 1011 29.85 840 24.81 5.6 42.1 53 -3.3 26.1
11:30 1011 29.85 840 24.81 6 42.9 50 -3.5 25.6
11:35 1011 29.85 840 24.81 5.7 42.3 53 -3.2 26.3
11:40 1011 29.85 840 24.81 6 42.8 53 -2.9 26.8
11:45 1011 29.85 840 24.81 6.1 43 52 -2.9 26.7
11:50 1010 29.83 840 24.81 6 42.8 52 -3 26.6
11:55 1010 29.83 840 24.81 5.9 42.5 52 -3.3 26
12:00 1010 29.83 839 24.78 6.2 43.2 50 -3.4 25.8
12:05 1010 29.83 840 24.81 6.9 44.5 48 -3.4 25.9
12:10 1010 29.83 840 24.81 7.2 45 46 -3.6 25.5
12:15 1010 29.83 839 24.78 7.2 44.9 48 -3 26.6
12:20 1010 29.83 839 24.78 7.2 44.9 47 -3.4 25.8
12:25 1010 29.83 839 24.78 7.6 45.7 47 -3.1 26.5
12:30 1010 29.83 839 24.78 7.6 45.8 45 -3.6 25.5
12:35 1010 29.83 839 24.78 7.1 44.8 48 -3.2 26.2
12:40 1010 29.83 839 24.78 6.8 44.3 47 -3.7 25.4
12:45 1010 29.83 839 24.78 7.4 45.2 46 -3.5 25.7
12:50 1010 29.83 839 24.78 7.7 45.9 46 -3.2 26.2
12:55 1010 29.83 839 24.78 7.9 46.2 45 -3.4 25.9
13:00 1010 29.83 839 24.78 7.9 46.2 45 -3.3 26
13:05 1010 29.83 839 24.78 7.5 45.5 46 -3.4 25.9
13:10 1010 29.83 839 24.78 7.2 44.9 49 -2.8 26.9
13:15 1009 29.8 839 24.78 6.6 43.9 50 -3.1 26.4
13:20 1009 29.8 839 24.78 6.5 43.7 51 -2.9 26.8
13:25 1009 29.8 838 24.75 6.7 44 52 -2.5 27.5
13:30 1009 29.8 838 24.75 7 44.5 48 -3.4 25.9
13:35 1009 29.8 838 24.75 7.2 44.9 48 -3 26.5
13:40 1009 29.8 838 24.75 7.1 44.8 49 -2.9 26.8
13:45 1009 29.8 838 24.75 6.8 44.3 50 -2.9 26.8
13:50 1008 29.77 837 24.72 6.7 44.1 49 -3.1 26.4
13:55 1008 29.77 837 24.72 6.8 44.2 49 -3.3 26.1
14:00 1008 29.77 837 24.72 6.8 44.3 49 -3.2 26.3
14:05 1008 29.77 837 24.72 7.2 45 48 -2.9 26.7
14:10 1008 29.77 837 24.72 7.4 45.4 47 -3 26.6
14:15 1008 29.77 837 24.72 7.8 46 47 -2.8 27
14:20 1008 29.77 837 24.72 8.1 46.5 48 -2.3 27.9
14:25 1008 29.77 837 24.72 7.7 45.9 47 -2.7 27.1
14:30 1008 29.77 837 24.72 7.8 46 48 -2.5 27.4
14:35 1008 29.77 837 24.72 7.5 45.6 49 -2.3 27.8
14:40 1008 29.77 837 24.72 6.8 44.3 52 -2.2 28
14:45 1007 29.74 837 24.72 6.7 44 51 -2.7 27.2
14:50 1007 29.74 836 24.69 7.3 45.1 51 -2.3 27.9
14:55 1007 29.74 836 24.69 7.4 45.3 50 -2.4 27.7
15:00 1007 29.74 836 24.69 7.2 45 50 -2.5 27.5
15:05 1007 29.74 836 24.69 7.3 45.1 49 -2.7 27.2
15:10 1007 29.74 836 24.69 7.2 45 50 -2.6 27.4
15:15 1007 29.74 836 24.69 6.8 44.3 50 -3 26.7
15:20 1007 29.74 836 24.69 6.7 44.1 51 -2.6 27.3
15:25 1007 29.74 836 24.69 6.7 44.1 51 -2.6 27.2
15:30 1006 29.71 836 24.69 6.7 44.1 50 -3 26.5
15:35 1006 29.71 836 24.69 6.8 44.3 50 -2.8 26.9
15:40 1006 29.71 835 24.66 7.1 44.7 50 -2.7 27.2
15:45 1006 29.71 835 24.66 7.3 45.2 50 -2.3 27.8
15:50 1006 29.71 835 24.66 7.7 45.8 47 -3 26.6
15:55 1006 29.71 835 24.66 7.5 45.5 49 -2.4 27.8
16:00 1006 29.71 835 24.66 7.5 45.6 47 -3.2 26.3
16:05 1006 29.71 835 24.66 7.9 46.2 47 -2.8 26.9
16:10 1006 29.71 835 24.66 8.2 46.8 43 -3.5 25.8
16:15 1006 29.71 835 24.66 8.4 47.1 44 -3.3 26.1
16:20 1006 29.71 835 24.66 8.6 47.5 46 -2.3 27.8
16:25 1006 29.71 835 24.66 8.6 47.4 43 -3.2 26.3
16:30 1006 29.71 835 24.66 8.6 47.5 45 -2.5 27.4
16:35 1006 29.71 835 24.66 8.7 47.7 46 -2.3 27.9
16:40 1006 29.71 835 24.66 8.6 47.5 46 -2.2 28
16:45 1006 29.71 835 24.66 8.2 46.7 49 -1.8 28.8
16:50 1006 29.71 835 24.66 7.7 45.9 50 -2.1 28.3
16:55 1006 29.71 835 24.66 7.6 45.7 50 -2.3 27.9
17:00 1006 29.71 835 24.66 7.3 45.2 51 -2 28.3
17:05 1006 29.71 835 24.66 7.1 44.8 51 -2.2 28
17:10 1006 29.71 835 24.66 7.1 44.7 53 -2 28.5
17:15 1006 29.71 836 24.69 6.8 44.3 53 -2.1 28.2
17:20 1006 29.71 835 24.66 6.7 44.1 53 -2.1 28.2
17:25 1006 29.71 835 24.66 6.7 44.1 53 -2.1 28.2
17:30 1006 29.71 835 24.66 6.6 43.8 55 -1.7 28.9
17:35 1006 29.71 835 24.66 6 42.8 58 -1.7 29
17:40 1006 29.71 835 24.66 5.8 42.4 59 -1.6 29.1
17:45 1006 29.71 835 24.66 5.7 42.3 58 -1.8 28.8
17:50 1006 29.71 835 24.66 5.9 42.6 58 -1.8 28.7
17:55 1006 29.71 835 24.66 6 42.7 58 -1.7 28.9
18:00 1006 29.71 835 24.66 6.2 43.2 52 -2.8 27
18:05 1006 29.71 835 24.66 6.4 43.5 56 -1.8 28.8
18:10 1006 29.71 835 24.66 6.1 43 57 -1.7 28.9
18:15 1006 29.71 835 24.66 5.8 42.5 58 -1.7 29
18:20 1006 29.71 835 24.66 5.8 42.5 58 -1.8 28.8
18:25 1006 29.71 835 24.66 5.8 42.5 57 -1.9 28.5
18:30 1005 29.68 835 24.66 5.8 42.5 54 -2.9 26.8
18:35 1005 29.68 835 24.66 5.9 42.6 54 -2.7 27.1
18:40 1005 29.68 835 24.66 5.7 42.3 56 -2.4 27.6
18:45 1005 29.68 834 24.63 5.8 42.5 52 -3.3 26
18:50 1005 29.68 835 24.66 6 42.7 53 -2.8 27
18:55 1005 29.68 834 24.63 5.9 42.6 54 -2.8 27
19:00 1005 29.68 834 24.63 6 42.9 49 -3.9 25
19:05 1005 29.68 834 24.63 6.5 43.8 48 -3.6 25.5
19:10 1005 29.68 834 24.63 6.8 44.2 48 -3.6 25.5
19:15 1005 29.68 834 24.63 6.8 44.2 50 -2.9 26.7
19:20 1005 29.68 834 24.63 6.7 44.1 47 -3.9 25
19:25 1005 29.68 834 24.63 7.3 45.2 43 -4.5 24
19:30 1005 29.68 834 24.63 7.3 45.1 47 -3.2 26.2
19:35 1005 29.68 834 24.63 7.3 45.1 46 -3.4 25.9
19:40 1005 29.68 834 24.63 7.3 45.2 48 -2.9 26.7
19:45 1005 29.68 834 24.63 6.9 44.5 48 -3.2 26.2
19:50 1005 29.68 835 24.66 6.6 43.9 48 -3.5 25.6
19:55 1005 29.68 835 24.66 6.4 43.4 55 -2 28.4
20:00 1005 29.68 835 24.66 5.6 42.1 57 -2.3 27.9
20:05 1005 29.68 835 24.66 5.2 41.4 57 -2.5 27.4
20:10 1005 29.68 835 24.66 5.3 41.5 48 -4.7 23.6
20:15 1005 29.68 835 24.66 6.4 43.5 50 -3.3 26.1
20:20 1005 29.68 835 24.66 6.3 43.3 44 -5 22.9
20:25 1005 29.68 835 24.66 7 44.7 41 -5.3 22.5
20:30 1005 29.68 834 24.63 7.9 46.3 40 -4.9 23.1
20:35 1005 29.68 834 24.63 7.8 46 39 -5.3 22.5
20:40 1005 29.68 834 24.63 7.4 45.2 45 -3.9 25
20:45 1005 29.68 834 24.63 6.7 44.1 44 -4.5 23.8
20:50 1005 29.68 834 24.63 6.5 43.7 45 -4.6 23.8
20:55 1005 29.68 834 24.63 6.3 43.4 44 -4.9 23.1
21:00 1005 29.68 834 24.63 6.7 44 41 -5.5 22.1
21:05 1005 29.68 834 24.63 7.1 44.7 40 -5.7 21.7
21:10 1005 29.68 834 24.63 7.2 45 39 -5.8 21.6
21:15 1005 29.68 834 24.63 7.2 44.9 40 -5.5 22.1
21:20 1005 29.68 834 24.63 6.8 44.3 42 -5.1 22.7
21:25 1005 29.68 834 24.63 6.6 43.9 42 -5.3 22.5
21:30 1005 29.68 834 24.63 6.6 43.9 42 -5.4 22.3
21:35 1005 29.68 834 24.63 6.7 44.1 40 -6 21.2
21:40 1005 29.68 834 24.63 7.4 45.3 36 -6.6 20.2
21:45 1005 29.68 834 24.63 7.7 45.9 36 -6.3 20.6
21:50 1005 29.68 834 24.63 7.7 45.8 37 -6.2 20.8
21:55 1005 29.68 834 24.63 7.6 45.6 38 -5.9 21.4
22:00 1005 29.68 834 24.63 7.8 46 35 -6.5 20.2
22:05 1005 29.68 834 24.63 8 46.4 33 -7.1 19.2
22:10 1005 29.68 834 24.63 8.2 46.7 36 -5.9 21.4
22:15 1005 29.68 834 24.63 7.8 46.1 38 -5.6 21.8
22:20 1005 29.68 834 24.63 7.6 45.7 34 -7.3 18.9
22:25 1005 29.68 834 24.63 8.3 47 32 -7.4 18.6
22:30 1005 29.68 834 24.63 8.9 48 31 -7.2 19.1
22:35 1005 29.68 834 24.63 9.2 48.6 34 -5.7 21.7
22:40 1005 29.68 834 24.63 8.2 46.8 35 -6.2 20.8
22:45 1005 29.68 834 24.63 7.7 45.8 39 -5.5 22.2
22:50 1005 29.68 834 24.63 6.7 44.1 40 -5.9 21.4
22:55 1005 29.68 834 24.63 6.9 44.4 38 -6.6 20.1
23:00 1005 29.68 834 24.63 7.1 44.8 37 -6.6 20.1
23:05 1005 29.68 834 24.63 7.2 44.9 38 -6.1 21
23:10 1005 29.68 834 24.63 7.2 45 38 -6.2 20.9
23:15 1005 29.68 834 24.63 7.2 44.9 38 -6.2 20.8
23:20 1005 29.68 834 24.63 7.3 45.1 38 -6.2 20.8
23:25 1005 29.68 834 24.63 6.9 44.4 41 -5.6 22
23:30 1005 29.68 834 24.63 6.8 44.3 39 -6.2 20.8
23:35 1005 29.68 834 24.63 7 44.6 37 -6.8 19.7
23:40 1005 29.68 834 24.63 7.6 45.6 36 -6.5 20.3
23:45 1004 29.65 834 24.63 7.5 45.6 35 -6.8 19.7
23:50 1004 29.65 834 24.63 7.7 45.8 36 -6.6 20.2
23:55 1004 29.65 834 24.63 7.4 45.4 38 -6.1 21
24:00 1004 29.65 834 24.63 7.1 44.7 39 -5.8 21.6